sensor_id;sensor_type;location;lat;lon;timestamp;pressure;altitude;pressure_sealevel;temperature;humidity
77147;BME280;66121;52.584;9.694;2023-08-12T00:02:19;101355.66;;;18.44;98.16
77147;BME280;66121;52.584;9.694;2023-08-12T00:05:06;101363.59;;;18.49;97.87
77147;BME280;66121;52.584;9.694;2023-08-12T00:07:51;101366.75;;;18.51;98.28
77147;BME280;66121;52.584;9.694;2023-08-12T00:10:37;101360.88;;;18.42;98.49
77147;BME280;66121;52.584;9.694;2023-08-12T00:13:23;101364.66;;;18.28;99.04
77147;BME280;66121;52.584;9.694;2023-08-12T00:16:09;101352.56;;;18.35;99.31
77147;BME280;66121;52.584;9.694;2023-08-12T00:18:54;101352.56;;;18.35;98.33
77147;BME280;66121;52.584;9.694;2023-08-12T00:21:40;101361.28;;;18.40;100.00
77147;BME280;66121;52.584;9.694;2023-08-12T00:24:26;101359.66;;;18.43;98.28
77147;BME280;66121;52.584;9.694;2023-08-12T00:27:11;101361.25;;;18.44;98.24
77147;BME280;66121;52.584;9.694;2023-08-12T00:29:57;101348.94;;;18.38;97.99
77147;BME280;66121;52.584;9.694;2023-08-12T00:32:43;101359.22;;;18.48;98.28
77147;BME280;66121;52.584;9.694;2023-08-12T00:35:28;101355.22;;;18.49;98.36
77147;BME280;66121;52.584;9.694;2023-08-12T00:38:14;101344.53;;;18.40;97.45
77147;BME280;66121;52.584;9.694;2023-08-12T00:40:59;101338.09;;;18.43;97.82
77147;BME280;66121;52.584;9.694;2023-08-12T00:43:45;101348.03;;;18.48;98.97
77147;BME280;66121;52.584;9.694;2023-08-12T00:46:31;101344.47;;;18.44;98.03
77147;BME280;66121;52.584;9.694;2023-08-12T00:49:17;101347.28;;;18.44;97.49
77147;BME280;66121;52.584;9.694;2023-08-12T00:52:04;101340.22;;;18.32;98.50
77147;BME280;66121;52.584;9.694;2023-08-12T00:54:49;101331.59;;;18.23;100.00
77147;BME280;66121;52.584;9.694;2023-08-12T00:57:35;101328.78;;;18.23;100.00
77147;BME280;66121;52.584;9.694;2023-08-12T01:00:21;101327.13;;;18.29;100.00
77147;BME280;66121;52.584;9.694;2023-08-12T01:03:07;101329.84;;;18.33;100.00
77147;BME280;66121;52.584;9.694;2023-08-12T01:05:53;101311.25;;;18.23;100.00
77147;BME280;66121;52.584;9.694;2023-08-12T01:08:38;101315.09;;;18.32;100.00
77147;BME280;66121;52.584;9.694;2023-08-12T01:11:29;101326.56;;;18.41;100.00
77147;BME280;66121;52.584;9.694;2023-08-12T01:14:30;101300.25;;;18.39;100.00
77147;BME280;66121;52.584;9.694;2023-08-12T01:17:18;101316.09;;;18.49;100.00
77147;BME280;66121;52.584;9.694;2023-08-12T01:20:06;101313.66;;;18.51;100.00
77147;BME280;66121;52.584;9.694;2023-08-12T01:23:11;101298.88;;;18.50;100.00
77147;BME280;66121;52.584;9.694;2023-08-12T01:25:58;101304.38;;;18.57;100.00
77147;BME280;66121;52.584;9.694;2023-08-12T01:28:44;101293.31;;;18.50;100.00
77147;BME280;66121;52.584;9.694;2023-08-12T01:31:34;101299.22;;;18.56;100.00
77147;BME280;66121;52.584;9.694;2023-08-12T01:34:33;101300.81;;;18.57;100.00
77147;BME280;66121;52.584;9.694;2023-08-12T01:37:24;101304.28;;;18.64;100.00
77147;BME280;66121;52.584;9.694;2023-08-12T01:40:13;101306.22;;;18.67;100.00
77147;BME280;66121;52.584;9.694;2023-08-12T01:43:01;101295.81;;;18.68;100.00
77147;BME280;66121;52.584;9.694;2023-08-12T01:45:48;101300.94;;;18.73;100.00
77147;BME280;66121;52.584;9.694;2023-08-12T01:48:35;101295.34;;;18.73;100.00
77147;BME280;66121;52.584;9.694;2023-08-12T01:51:21;101295.69;;;18.75;100.00
77147;BME280;66121;52.584;9.694;2023-08-12T01:54:07;101291.34;;;18.74;100.00
77147;BME280;66121;52.584;9.694;2023-08-12T01:56:53;101283.81;;;18.71;100.00
77147;BME280;66121;52.584;9.694;2023-08-12T01:59:38;101288.13;;;18.76;100.00
77147;BME280;66121;52.584;9.694;2023-08-12T02:02:24;101281.06;;;18.91;100.00
77147;BME280;66121;52.584;9.694;2023-08-12T02:05:10;101281.75;;;18.98;100.00
77147;BME280;66121;52.584;9.694;2023-08-12T02:07:55;101265.13;;;18.88;100.00
77147;BME280;66121;52.584;9.694;2023-08-12T02:10:41;101269.09;;;18.90;100.00
77147;BME280;66121;52.584;9.694;2023-08-12T02:13:26;101269.56;;;18.85;100.00
77147;BME280;66121;52.584;9.694;2023-08-12T02:16:12;101279.91;;;18.88;100.00
77147;BME280;66121;52.584;9.694;2023-08-12T02:18:58;101272.38;;;18.85;100.00
77147;BME280;66121;52.584;9.694;2023-08-12T02:21:43;101279.06;;;18.91;100.00
77147;BME280;66121;52.584;9.694;2023-08-12T02:24:29;101288.97;;;18.96;100.00
77147;BME280;66121;52.584;9.694;2023-08-12T02:27:15;101284.72;;;18.88;100.00
77147;BME280;66121;52.584;9.694;2023-08-12T02:30:00;101288.53;;;18.97;100.00
77147;BME280;66121;52.584;9.694;2023-08-12T02:32:46;101288.31;;;18.88;100.00
77147;BME280;66121;52.584;9.694;2023-08-12T02:35:32;101275.97;;;18.86;100.00
77147;BME280;66121;52.584;9.694;2023-08-12T02:38:18;101297.50;;;18.89;100.00
77147;BME280;66121;52.584;9.694;2023-08-12T02:41:03;101307.84;;;18.92;100.00
77147;BME280;66121;52.584;9.694;2023-08-12T02:43:49;101329.28;;;18.98;100.00
77147;BME280;66121;52.584;9.694;2023-08-12T02:46:34;101331.41;;;18.91;100.00
77147;BME280;66121;52.584;9.694;2023-08-12T02:49:20;101316.31;;;18.85;100.00
77147;BME280;66121;52.584;9.694;2023-08-12T02:52:06;101304.03;;;18.79;100.00
77147;BME280;66121;52.584;9.694;2023-08-12T02:54:51;101296.03;;;18.81;100.00
77147;BME280;66121;52.584;9.694;2023-08-12T02:57:37;101304.38;;;18.84;100.00
77147;BME280;66121;52.584;9.694;2023-08-12T03:00:23;101286.97;;;18.73;100.00
77147;BME280;66121;52.584;9.694;2023-08-12T03:03:09;101310.91;;;18.74;100.00
77147;BME280;66121;52.584;9.694;2023-08-12T03:05:55;101292.91;;;18.75;100.00
77147;BME280;66121;52.584;9.694;2023-08-12T03:08:40;101319.88;;;18.89;100.00
77147;BME280;66121;52.584;9.694;2023-08-12T03:11:26;101310.72;;;18.85;100.00
77147;BME280;66121;52.584;9.694;2023-08-12T03:14:11;101316.25;;;18.88;100.00
77147;BME280;66121;52.584;9.694;2023-08-12T03:16:57;101316.78;;;18.80;100.00
77147;BME280;66121;52.584;9.694;2023-08-12T03:19:43;101321.31;;;18.74;100.00
77147;BME280;66121;52.584;9.694;2023-08-12T03:22:28;101315.28;;;18.75;100.00
77147;BME280;66121;52.584;9.694;2023-08-12T03:25:14;101307.75;;;18.72;100.00
77147;BME280;66121;52.584;9.694;2023-08-12T03:28:03;101310.84;;;18.78;100.00
77147;BME280;66121;52.584;9.694;2023-08-12T03:30:52;101302.81;;;18.80;100.00
77147;BME280;66121;52.584;9.694;2023-08-12T03:33:38;101307.94;;;18.85;100.00
77147;BME280;66121;52.584;9.694;2023-08-12T03:36:24;101303.81;;;18.70;100.00
77147;BME280;66121;52.584;9.694;2023-08-12T03:39:09;101313.38;;;18.69;100.00
77147;BME280;66121;52.584;9.694;2023-08-12T03:41:55;101305.44;;;18.67;100.00
77147;BME280;66121;52.584;9.694;2023-08-12T03:44:41;101329.41;;;18.91;100.00
77147;BME280;66121;52.584;9.694;2023-08-12T03:47:26;101334.00;;;18.78;100.00
77147;BME280;66121;52.584;9.694;2023-08-12T03:50:12;101316.16;;;18.72;100.00
77147;BME280;66121;52.584;9.694;2023-08-12T03:52:57;101307.38;;;18.70;100.00
77147;BME280;66121;52.584;9.694;2023-08-12T03:55:43;101294.63;;;18.69;100.00
77147;BME280;66121;52.584;9.694;2023-08-12T03:58:29;101283.47;;;18.65;100.00
77147;BME280;66121;52.584;9.694;2023-08-12T04:01:15;101308.03;;;18.78;100.00
77147;BME280;66121;52.584;9.694;2023-08-12T04:04:00;101294.13;;;18.74;100.00
77147;BME280;66121;52.584;9.694;2023-08-12T04:06:46;101292.91;;;18.75;100.00
77147;BME280;66121;52.584;9.694;2023-08-12T04:09:33;101290.97;;;18.72;100.00
77147;BME280;66121;52.584;9.694;2023-08-12T04:12:19;101276.13;;;18.75;100.00
77147;BME280;66121;52.584;9.694;2023-08-12T04:15:05;101286.56;;;18.75;100.00
77147;BME280;66121;52.584;9.694;2023-08-12T04:17:51;101281.72;;;18.75;100.00
77147;BME280;66121;52.584;9.694;2023-08-12T04:20:37;101296.19;;;18.70;100.00
77147;BME280;66121;52.584;9.694;2023-08-12T04:23:23;101307.00;;;18.68;100.00
77147;BME280;66121;52.584;9.694;2023-08-12T04:26:09;101309.00;;;18.67;100.00
77147;BME280;66121;52.584;9.694;2023-08-12T04:28:55;101315.72;;;18.74;100.00
77147;BME280;66121;52.584;9.694;2023-08-12T04:31:40;101312.56;;;18.72;100.00
77147;BME280;66121;52.584;9.694;2023-08-12T04:34:26;101312.19;;;18.70;100.00
77147;BME280;66121;52.584;9.694;2023-08-12T04:37:12;101308.59;;;18.69;100.00
77147;BME280;66121;52.584;9.694;2023-08-12T04:39:58;101308.13;;;18.74;100.00
77147;BME280;66121;52.584;9.694;2023-08-12T04:42:43;101314.38;;;18.82;100.00
77147;BME280;66121;52.584;9.694;2023-08-12T04:45:29;101322.22;;;18.90;100.00
77147;BME280;66121;52.584;9.694;2023-08-12T04:48:15;101313.63;;;18.78;100.00
77147;BME280;66121;52.584;9.694;2023-08-12T04:51:00;101317.66;;;18.77;100.00
77147;BME280;66121;52.584;9.694;2023-08-12T04:53:48;101330.00;;;18.79;100.00
77147;BME280;66121;52.584;9.694;2023-08-12T04:56:33;101337.91;;;18.84;100.00
77147;BME280;66121;52.584;9.694;2023-08-12T04:59:19;101338.28;;;18.86;100.00
77147;BME280;66121;52.584;9.694;2023-08-12T05:02:05;101348.00;;;18.78;100.00
77147;BME280;66121;52.584;9.694;2023-08-12T05:04:51;101353.56;;;18.78;100.00
77147;BME280;66121;52.584;9.694;2023-08-12T05:07:37;101343.34;;;18.68;100.00
77147;BME280;66121;52.584;9.694;2023-08-12T05:10:22;101344.38;;;18.54;100.00
77147;BME280;66121;52.584;9.694;2023-08-12T05:13:08;101349.53;;;18.56;100.00
77147;BME280;66121;52.584;9.694;2023-08-12T05:15:54;101345.53;;;18.57;100.00
77147;BME280;66121;52.584;9.694;2023-08-12T05:18:39;101349.31;;;18.70;100.00
77147;BME280;66121;52.584;9.694;2023-08-12T05:21:25;101339.75;;;18.67;100.00
77147;BME280;66121;52.584;9.694;2023-08-12T05:24:10;101340.44;;;18.75;100.00
77147;BME280;66121;52.584;9.694;2023-08-12T05:26:57;101333.22;;;18.78;100.00
77147;BME280;66121;52.584;9.694;2023-08-12T05:29:42;101327.44;;;18.88;100.00
77147;BME280;66121;52.584;9.694;2023-08-12T05:32:28;101325.28;;;18.99;100.00
77147;BME280;66121;52.584;9.694;2023-08-12T05:35:13;101325.88;;;19.10;100.00
77147;BME280;66121;52.584;9.694;2023-08-12T05:37:59;101343.19;;;19.25;100.00
77147;BME280;66121;52.584;9.694;2023-08-12T05:40:45;101344.22;;;19.35;100.00
77147;BME280;66121;52.584;9.694;2023-08-12T05:43:30;101344.72;;;19.29;100.00
77147;BME280;66121;52.584;9.694;2023-08-12T05:46:16;101337.06;;;19.34;100.00
77147;BME280;66121;52.584;9.694;2023-08-12T05:49:02;101329.69;;;19.20;100.00
77147;BME280;66121;52.584;9.694;2023-08-12T05:51:48;101327.22;;;19.25;100.00
77147;BME280;66121;52.584;9.694;2023-08-12T05:54:33;101335.44;;;19.36;100.00
77147;BME280;66121;52.584;9.694;2023-08-12T05:57:19;101320.53;;;19.19;100.00
77147;BME280;66121;52.584;9.694;2023-08-12T06:00:05;101339.06;;;19.33;100.00
77147;BME280;66121;52.584;9.694;2023-08-12T06:02:51;101335.06;;;19.34;100.00
77147;BME280;66121;52.584;9.694;2023-08-12T06:05:37;101337.75;;;19.41;100.00
77147;BME280;66121;52.584;9.694;2023-08-12T06:08:22;101341.56;;;19.51;100.00
77147;BME280;66121;52.584;9.694;2023-08-12T06:11:08;101337.19;;;19.50;100.00
77147;BME280;66121;52.584;9.694;2023-08-12T06:13:54;101339.00;;;19.60;100.00
77147;BME280;66121;52.584;9.694;2023-08-12T06:16:39;101338.94;;;19.63;100.00
77147;BME280;66121;52.584;9.694;2023-08-12T06:19:25;101333.13;;;19.54;100.00
77147;BME280;66121;52.584;9.694;2023-08-12T06:22:10;101330.41;;;19.70;100.00
77147;BME280;66121;52.584;9.694;2023-08-12T06:24:56;101346.63;;;19.79;100.00
77147;BME280;66121;52.584;9.694;2023-08-12T06:27:42;101338.94;;;20.03;100.00
77147;BME280;66121;52.584;9.694;2023-08-12T06:30:28;101338.44;;;20.08;100.00
77147;BME280;66121;52.584;9.694;2023-08-12T06:33:14;101325.44;;;19.98;100.00
77147;BME280;66121;52.584;9.694;2023-08-12T06:36:00;101320.75;;;20.11;100.00
77147;BME280;66121;52.584;9.694;2023-08-12T06:38:46;101320.81;;;20.07;100.00
77147;BME280;66121;52.584;9.694;2023-08-12T06:41:31;101317.34;;;20.19;100.00
77147;BME280;66121;52.584;9.694;2023-08-12T06:44:17;101301.19;;;20.27;100.00
77147;BME280;66121;52.584;9.694;2023-08-12T06:47:02;101303.88;;;20.34;100.00
77147;BME280;66121;52.584;9.694;2023-08-12T06:49:48;101303.25;;;20.42;100.00
77147;BME280;66121;52.584;9.694;2023-08-12T06:52:34;101293.28;;;20.41;100.00
77147;BME280;66121;52.584;9.694;2023-08-12T06:55:20;101287.50;;;20.48;100.00
77147;BME280;66121;52.584;9.694;2023-08-12T06:58:05;101294.78;;;20.62;100.00
77147;BME280;66121;52.584;9.694;2023-08-12T07:00:51;101282.94;;;20.54;100.00
77147;BME280;66121;52.584;9.694;2023-08-12T07:03:38;101288.22;;;20.69;100.00
77147;BME280;66121;52.584;9.694;2023-08-12T07:06:24;101280.94;;;20.71;100.00
77147;BME280;66121;52.584;9.694;2023-08-12T07:09:09;101299.25;;;20.92;100.00
77147;BME280;66121;52.584;9.694;2023-08-12T07:11:55;101284.13;;;21.05;100.00
77147;BME280;66121;52.584;9.694;2023-08-12T07:14:41;101275.31;;;21.03;100.00
77147;BME280;66121;52.584;9.694;2023-08-12T07:17:26;101283.19;;;21.25;99.95
77147;BME280;66121;52.584;9.694;2023-08-12T07:20:12;101283.38;;;21.34;99.29
77147;BME280;66121;52.584;9.694;2023-08-12T07:22:57;101279.56;;;21.40;99.70
77147;BME280;66121;52.584;9.694;2023-08-12T07:25:46;101270.09;;;21.63;100.00
77147;BME280;66121;52.584;9.694;2023-08-12T07:28:31;101269.91;;;21.70;96.94
77147;BME280;66121;52.584;9.694;2023-08-12T07:31:17;101276.09;;;21.77;96.05
77147;BME280;66121;52.584;9.694;2023-08-12T07:34:03;101271.00;;;21.89;94.22
77147;BME280;66121;52.584;9.694;2023-08-12T07:36:49;101273.06;;;21.84;95.41
77147;BME280;66121;52.584;9.694;2023-08-12T07:39:35;101281.13;;;22.11;95.58
77147;BME280;66121;52.584;9.694;2023-08-12T07:42:20;101293.31;;;22.33;94.80
77147;BME280;66121;52.584;9.694;2023-08-12T07:45:09;101288.25;;;22.41;93.39
77147;BME280;66121;52.584;9.694;2023-08-12T07:47:57;101277.75;;;22.54;91.68
77147;BME280;66121;52.584;9.694;2023-08-12T07:50:42;101282.50;;;22.70;90.42
77147;BME280;66121;52.584;9.694;2023-08-12T07:53:28;101273.47;;;22.87;89.14
77147;BME280;66121;52.584;9.694;2023-08-12T07:56:14;101264.53;;;23.01;88.75
77147;BME280;66121;52.584;9.694;2023-08-12T07:58:59;101261.59;;;23.18;87.04
77147;BME280;66121;52.584;9.694;2023-08-12T08:01:45;101256.34;;;23.29;85.35
77147;BME280;66121;52.584;9.694;2023-08-12T08:04:31;101272.66;;;23.68;86.93
77147;BME280;66121;52.584;9.694;2023-08-12T08:07:17;101255.56;;;23.41;85.92
77147;BME280;66121;52.584;9.694;2023-08-12T08:10:02;101271.41;;;23.47;87.34
77147;BME280;66121;52.584;9.694;2023-08-12T08:12:48;101266.41;;;23.17;88.46
77147;BME280;66121;52.584;9.694;2023-08-12T08:15:34;101258.09;;;23.14;87.23
77147;BME280;66121;52.584;9.694;2023-08-12T08:18:20;101257.75;;;23.12;86.54
77147;BME280;66121;52.584;9.694;2023-08-12T08:21:05;101254.50;;;23.13;85.24
77147;BME280;66121;52.584;9.694;2023-08-12T08:23:51;101247.19;;;23.16;86.64
77147;BME280;66121;52.584;9.694;2023-08-12T08:26:37;101240.16;;;23.20;85.70
77147;BME280;66121;52.584;9.694;2023-08-12T08:29:22;101255.94;;;23.18;87.30
77147;BME280;66121;52.584;9.694;2023-08-12T08:32:08;101272.63;;;23.12;87.73
77147;BME280;66121;52.584;9.694;2023-08-12T08:34:54;101261.63;;;23.05;86.29
77147;BME280;66121;52.584;9.694;2023-08-12T08:37:40;101257.22;;;23.04;89.76
77147;BME280;66121;52.584;9.694;2023-08-12T08:40:27;101259.59;;;23.05;88.22
77147;BME280;66121;52.584;9.694;2023-08-12T08:43:15;101264.66;;;23.45;89.68
77147;BME280;66121;52.584;9.694;2023-08-12T08:46:01;101256.00;;;23.61;90.06
77147;BME280;66121;52.584;9.694;2023-08-12T08:48:48;101249.38;;;23.55;86.06
77147;BME280;66121;52.584;9.694;2023-08-12T08:51:34;101252.00;;;23.49;85.95
77147;BME280;66121;52.584;9.694;2023-08-12T08:54:20;101265.44;;;23.45;88.04
77147;BME280;66121;52.584;9.694;2023-08-12T08:57:06;101244.22;;;23.19;88.28
77147;BME280;66121;52.584;9.694;2023-08-12T08:59:52;101253.50;;;23.07;88.25
77147;BME280;66121;52.584;9.694;2023-08-12T09:02:38;101262.16;;;23.13;91.23
77147;BME280;66121;52.584;9.694;2023-08-12T09:05:25;101257.09;;;23.07;91.51
77147;BME280;66121;52.584;9.694;2023-08-12T09:08:11;101260.47;;;23.15;90.62
77147;BME280;66121;52.584;9.694;2023-08-12T09:11:02;101245.53;;;23.05;90.51
77147;BME280;66121;52.584;9.694;2023-08-12T09:13:48;101251.59;;;23.04;91.20
77147;BME280;66121;52.584;9.694;2023-08-12T09:16:34;101244.41;;;23.03;90.65
77147;BME280;66121;52.584;9.694;2023-08-12T09:19:19;101249.94;;;22.94;90.79
77147;BME280;66121;52.584;9.694;2023-08-12T09:22:05;101246.13;;;22.88;91.80
77147;BME280;66121;52.584;9.694;2023-08-12T09:24:56;101240.75;;;22.81;90.63
77147;BME280;66121;52.584;9.694;2023-08-12T09:27:43;101245.38;;;22.62;92.83
77147;BME280;66121;52.584;9.694;2023-08-12T09:30:29;101240.44;;;22.41;93.60
77147;BME280;66121;52.584;9.694;2023-08-12T09:33:15;101237.19;;;22.17;94.27
77147;BME280;66121;52.584;9.694;2023-08-12T09:36:01;101232.34;;;22.18;95.05
77147;BME280;66121;52.584;9.694;2023-08-12T09:38:47;101222.78;;;22.28;97.89
77147;BME280;66121;52.584;9.694;2023-08-12T09:41:33;101223.00;;;22.46;97.82
77147;BME280;66121;52.584;9.694;2023-08-12T09:44:18;101217.16;;;22.28;95.56
77147;BME280;66121;52.584;9.694;2023-08-12T09:47:05;101228.28;;;22.31;96.26
77147;BME280;66121;52.584;9.694;2023-08-12T09:49:51;101228.72;;;22.42;96.41
77147;BME280;66121;52.584;9.694;2023-08-12T09:52:37;101231.66;;;22.39;97.00
77147;BME280;66121;52.584;9.694;2023-08-12T09:55:27;101229.06;;;22.32;97.65
77147;BME280;66121;52.584;9.694;2023-08-12T09:58:20;101219.09;;;22.31;97.06
77147;BME280;66121;52.584;9.694;2023-08-12T10:01:10;101223.34;;;22.35;95.24
77147;BME280;66121;52.584;9.694;2023-08-12T10:03:56;101214.00;;;22.38;96.21
77147;BME280;66121;52.584;9.694;2023-08-12T10:06:42;101210.06;;;22.49;95.98
77147;BME280;66121;52.584;9.694;2023-08-12T10:09:28;101213.75;;;22.58;97.20
77147;BME280;66121;52.584;9.694;2023-08-12T10:12:15;101214.09;;;22.60;96.72
77147;BME280;66121;52.584;9.694;2023-08-12T10:15:00;101216.34;;;22.53;94.51
77147;BME280;66121;52.584;9.694;2023-08-12T10:17:47;101218.38;;;22.52;92.59
77147;BME280;66121;52.584;9.694;2023-08-12T10:20:35;101218.84;;;22.51;94.26
77147;BME280;66121;52.584;9.694;2023-08-12T10:23:22;101217.72;;;22.48;94.84
77147;BME280;66121;52.584;9.694;2023-08-12T10:26:09;101201.97;;;22.51;94.96
77147;BME280;66121;52.584;9.694;2023-08-12T10:28:55;101226.81;;;22.52;93.85
77147;BME280;66121;52.584;9.694;2023-08-12T10:31:41;101219.28;;;22.62;94.38
77147;BME280;66121;52.584;9.694;2023-08-12T10:34:30;101215.75;;;22.83;95.25
77147;BME280;66121;52.584;9.694;2023-08-12T10:37:15;101218.78;;;22.88;93.98
77147;BME280;66121;52.584;9.694;2023-08-12T10:40:05;101225.28;;;22.98;93.58
77147;BME280;66121;52.584;9.694;2023-08-12T10:42:54;101216.88;;;22.85;93.85
77147;BME280;66121;52.584;9.694;2023-08-12T10:45:52;101230.75;;;23.01;94.25
77147;BME280;66121;52.584;9.694;2023-08-12T10:48:56;101232.69;;;23.04;92.25
77147;BME280;66121;52.584;9.694;2023-08-12T10:51:45;101216.84;;;23.20;93.15
77147;BME280;66121;52.584;9.694;2023-08-12T10:54:31;101197.06;;;23.45;93.39
77147;BME280;66121;52.584;9.694;2023-08-12T10:57:16;101209.22;;;23.63;91.44
77147;BME280;66121;52.584;9.694;2023-08-12T11:00:02;101191.03;;;23.55;90.76
77147;BME280;66121;52.584;9.694;2023-08-12T11:02:50;101178.97;;;23.55;91.74
77147;BME280;66121;52.584;9.694;2023-08-12T11:05:37;101172.38;;;23.80;89.46
77147;BME280;66121;52.584;9.694;2023-08-12T11:08:26;101151.91;;;23.88;90.73
77147;BME280;66121;52.584;9.694;2023-08-12T11:11:19;101159.47;;;24.00;90.26
77147;BME280;66121;52.584;9.694;2023-08-12T11:14:11;101170.09;;;24.36;88.63
77147;BME280;66121;52.584;9.694;2023-08-12T11:16:59;101169.72;;;24.92;85.36
77147;BME280;66121;52.584;9.694;2023-08-12T11:19:45;101177.50;;;25.60;84.24
77147;BME280;66121;52.584;9.694;2023-08-12T11:22:33;101172.75;;;26.27;78.72
77147;BME280;66121;52.584;9.694;2023-08-12T11:25:20;101142.78;;;25.69;75.58
77147;BME280;66121;52.584;9.694;2023-08-12T11:28:07;101140.47;;;25.40;75.61
77147;BME280;66121;52.584;9.694;2023-08-12T11:30:53;101134.13;;;25.13;78.25
77147;BME280;66121;52.584;9.694;2023-08-12T11:33:39;101111.19;;;24.74;78.89
77147;BME280;66121;52.584;9.694;2023-08-12T11:36:25;101132.22;;;25.01;79.22
77147;BME280;66121;52.584;9.694;2023-08-12T11:39:10;101138.50;;;25.23;78.67
77147;BME280;66121;52.584;9.694;2023-08-12T11:41:56;101122.94;;;25.27;76.74
77147;BME280;66121;52.584;9.694;2023-08-12T11:44:42;101128.13;;;25.11;76.44
77147;BME280;66121;52.584;9.694;2023-08-12T11:47:28;101125.31;;;25.11;78.04
77147;BME280;66121;52.584;9.694;2023-08-12T11:50:14;101123.44;;;24.98;79.23
77147;BME280;66121;52.584;9.694;2023-08-12T11:53:00;101123.75;;;25.10;77.37
77147;BME280;66121;52.584;9.694;2023-08-12T11:55:46;101120.66;;;24.80;80.16
77147;BME280;66121;52.584;9.694;2023-08-12T11:58:37;101102.09;;;24.61;78.99
77147;BME280;66121;52.584;9.694;2023-08-12T12:01:24;101105.53;;;24.47;79.62
77147;BME280;66121;52.584;9.694;2023-08-12T12:04:10;101096.59;;;24.40;81.66
77147;BME280;66121;52.584;9.694;2023-08-12T12:06:55;101100.66;;;24.29;82.44
77147;BME280;66121;52.584;9.694;2023-08-12T12:09:43;101096.25;;;24.19;81.41
77147;BME280;66121;52.584;9.694;2023-08-12T12:12:29;101082.63;;;24.27;83.83
77147;BME280;66121;52.584;9.694;2023-08-12T12:15:15;101087.44;;;24.08;82.67
77147;BME280;66121;52.584;9.694;2023-08-12T12:18:01;101076.63;;;24.07;83.01
77147;BME280;66121;52.584;9.694;2023-08-12T12:20:54;101085.81;;;23.98;83.77
77147;BME280;66121;52.584;9.694;2023-08-12T12:23:41;101080.91;;;24.20;83.34
77147;BME280;66121;52.584;9.694;2023-08-12T12:26:26;101083.75;;;24.75;85.24
77147;BME280;66121;52.584;9.694;2023-08-12T12:29:12;101077.19;;;25.05;82.50
77147;BME280;66121;52.584;9.694;2023-08-12T12:31:58;101073.56;;;25.65;78.78
77147;BME280;66121;52.584;9.694;2023-08-12T12:34:44;101062.91;;;25.92;76.86
77147;BME280;66121;52.584;9.694;2023-08-12T12:37:30;101057.72;;;25.91;74.37
77147;BME280;66121;52.584;9.694;2023-08-12T12:40:16;101056.09;;;25.99;75.70
77147;BME280;66121;52.584;9.694;2023-08-12T12:43:01;101053.56;;;25.77;77.33
77147;BME280;66121;52.584;9.694;2023-08-12T12:45:48;101049.81;;;25.71;75.67
77147;BME280;66121;52.584;9.694;2023-08-12T12:48:34;101055.75;;;25.73;76.81
77147;BME280;66121;52.584;9.694;2023-08-12T12:51:19;101045.09;;;25.68;76.03
77147;BME280;66121;52.584;9.694;2023-08-12T12:54:05;101038.47;;;25.38;79.90
77147;BME280;66121;52.584;9.694;2023-08-12T12:56:51;101038.91;;;25.55;80.22
77147;BME280;66121;52.584;9.694;2023-08-12T12:59:36;101037.78;;;25.85;77.55
77147;BME280;66121;52.584;9.694;2023-08-12T13:02:22;101027.56;;;25.88;77.08
77147;BME280;66121;52.584;9.694;2023-08-12T13:05:08;101014.88;;;26.07;77.85
77147;BME280;66121;52.584;9.694;2023-08-12T13:07:54;101009.84;;;26.35;76.49
77147;BME280;66121;52.584;9.694;2023-08-12T13:10:39;101010.34;;;26.00;75.98
77147;BME280;66121;52.584;9.694;2023-08-12T13:13:25;101007.44;;;26.18;76.59
77147;BME280;66121;52.584;9.694;2023-08-12T13:16:11;100993.28;;;26.18;74.58
77147;BME280;66121;52.584;9.694;2023-08-12T13:18:56;101003.47;;;26.78;75.40
77147;BME280;66121;52.584;9.694;2023-08-12T13:21:45;101007.09;;;26.40;75.63
77147;BME280;66121;52.584;9.694;2023-08-12T13:24:30;101008.91;;;25.57;75.64
77147;BME280;66121;52.584;9.694;2023-08-12T13:27:16;101015.75;;;25.24;77.01
77147;BME280;66121;52.584;9.694;2023-08-12T13:30:02;101015.75;;;25.33;77.89
77147;BME280;66121;52.584;9.694;2023-08-12T13:32:49;101008.38;;;25.26;77.27
77147;BME280;66121;52.584;9.694;2023-08-12T13:35:35;101027.06;;;25.66;78.33
77147;BME280;66121;52.584;9.694;2023-08-12T13:38:20;101020.88;;;25.76;76.61
77147;BME280;66121;52.584;9.694;2023-08-12T13:41:06;101012.84;;;25.51;77.90
77147;BME280;66121;52.584;9.694;2023-08-12T13:43:52;101004.75;;;25.26;78.86
77147;BME280;66121;52.584;9.694;2023-08-12T13:46:37;101004.41;;;25.42;78.81
77147;BME280;66121;52.584;9.694;2023-08-12T13:49:23;101016.59;;;25.15;78.48
77147;BME280;66121;52.584;9.694;2023-08-12T13:52:08;101018.47;;;25.09;80.22
77147;BME280;66121;52.584;9.694;2023-08-12T13:54:54;101018.38;;;24.76;80.90
77147;BME280;66121;52.584;9.694;2023-08-12T13:57:40;101012.75;;;24.67;79.56
77147;BME280;66121;52.584;9.694;2023-08-12T14:00:33;101011.16;;;24.66;79.57
77147;BME280;66121;52.584;9.694;2023-08-12T14:03:18;101006.00;;;24.65;79.83
77147;BME280;66121;52.584;9.694;2023-08-12T14:06:04;101025.78;;;24.83;82.14
77147;BME280;66121;52.584;9.694;2023-08-12T14:08:50;101019.97;;;24.77;82.96
77147;BME280;66121;52.584;9.694;2023-08-12T14:11:35;101030.00;;;24.60;84.43
77147;BME280;66121;52.584;9.694;2023-08-12T14:14:21;101032.97;;;24.39;83.94
77147;BME280;66121;52.584;9.694;2023-08-12T14:17:07;101030.94;;;24.30;84.70
77147;BME280;66121;52.584;9.694;2023-08-12T14:19:52;101039.72;;;24.23;84.96
77147;BME280;66121;52.584;9.694;2023-08-12T14:22:41;101040.88;;;24.04;83.54
77147;BME280;66121;52.584;9.694;2023-08-12T14:25:29;101050.56;;;23.85;85.26